createdAt,value
2023-02-04T00:01:13.567Z,100.00
2023-02-04T00:03:43.268Z,100.00
2023-02-04T00:06:13.008Z,100.00
2023-02-04T00:08:41.939Z,100.00
2023-02-04T00:11:12.301Z,100.00
2023-02-04T00:13:42.675Z,100.00
2023-02-04T00:16:12.519Z,100.00
2023-02-04T00:18:43.318Z,100.00
2023-02-04T00:21:12.453Z,100.00
2023-02-04T00:23:41.980Z,100.00
2023-02-04T00:26:10.391Z,100.00
2023-02-04T00:28:40.815Z,100.00
2023-02-04T00:31:10.022Z,100.00
2023-02-04T00:33:39.344Z,100.00
2023-02-04T00:36:09.100Z,100.00
2023-02-04T00:38:39.658Z,100.00
2023-02-04T00:41:10.129Z,100.00
2023-02-04T00:43:39.511Z,100.00
2023-02-04T00:46:08.876Z,100.00
2023-02-04T00:48:38.749Z,100.00
2023-02-04T00:51:08.850Z,100.00
2023-02-04T00:53:37.930Z,100.00
2023-02-04T00:56:06.666Z,100.00
2023-02-04T00:58:36.158Z,100.00
2023-02-04T01:01:05.025Z,100.00
2023-02-04T01:03:33.592Z,100.00
2023-02-04T01:06:03.742Z,100.00
2023-02-04T01:08:33.957Z,100.00
2023-02-04T01:11:02.961Z,100.00
2023-02-04T01:13:31.549Z,100.00
2023-02-04T01:16:01.036Z,100.00
2023-02-04T01:18:31.513Z,100.00
2023-02-04T01:21:00.558Z,100.00
2023-02-04T01:23:30.493Z,100.00
2023-02-04T01:26:00.374Z,100.00
2023-02-04T01:28:30.320Z,100.00
2023-02-04T01:31:01.367Z,100.00
2023-02-04T01:33:30.633Z,100.00
2023-02-04T01:35:59.560Z,100.00
2023-02-04T01:38:29.890Z,100.00
2023-02-04T01:40:58.421Z,100.00
2023-02-04T01:43:27.560Z,100.00
2023-02-04T01:45:58.937Z,100.00
2023-02-04T01:48:28.438Z,100.00
2023-02-04T01:51:09.218Z,100.00
2023-02-04T01:53:40.127Z,100.00
2023-02-04T01:56:18.015Z,100.00
2023-02-04T01:58:47.197Z,100.00
2023-02-04T02:01:33.211Z,100.00
2023-02-04T02:04:02.152Z,100.00
2023-02-04T02:06:31.467Z,100.00
2023-02-04T02:09:00.813Z,100.00
2023-02-04T02:11:31.353Z,100.00
2023-02-04T02:14:01.679Z,100.00
2023-02-04T02:16:32.398Z,100.00
2023-02-04T02:19:02.600Z,100.00
2023-02-04T02:21:39.696Z,100.00
2023-02-04T02:24:28.105Z,100.00
2023-02-04T02:27:00.341Z,100.00
2023-02-04T02:29:29.144Z,100.00
2023-02-04T02:31:58.561Z,100.00
2023-02-04T02:34:31.401Z,100.00
2023-02-04T02:37:00.060Z,100.00
2023-02-04T02:39:28.962Z,100.00
2023-02-04T02:41:57.895Z,100.00
2023-02-04T02:44:27.379Z,100.00
2023-02-04T02:46:57.646Z,100.00
2023-02-04T02:49:27.796Z,100.00
2023-02-04T02:51:57.365Z,100.00
2023-02-04T02:54:30.763Z,100.00
2023-02-04T02:57:02.598Z,100.00
2023-02-04T02:59:31.164Z,100.00
2023-02-04T03:02:02.280Z,100.00
2023-02-04T03:04:42.420Z,100.00
2023-02-04T03:07:11.870Z,100.00
2023-02-04T03:09:40.750Z,100.00
2023-02-04T03:12:09.271Z,100.00
2023-02-04T03:14:40.085Z,100.00
2023-02-04T03:17:10.583Z,100.00
2023-02-04T03:19:41.331Z,100.00
2023-02-04T03:22:13.466Z,100.00
2023-02-04T03:24:42.461Z,100.00
2023-02-04T03:27:12.441Z,100.00
2023-02-04T03:29:43.903Z,100.00
2023-02-04T03:32:13.968Z,100.00
2023-02-04T03:34:43.573Z,100.00
2023-02-04T03:37:14.056Z,100.00
2023-02-04T03:39:43.816Z,100.00
2023-02-04T03:42:13.709Z,100.00
2023-02-04T03:44:44.085Z,100.00
2023-02-04T03:47:14.122Z,100.00
2023-02-04T03:49:42.705Z,100.00
2023-02-04T03:52:11.342Z,100.00
2023-02-04T03:54:40.788Z,100.00
2023-02-04T03:57:11.456Z,100.00
2023-02-04T03:59:40.762Z,100.00
2023-02-04T04:02:11.732Z,100.00
2023-02-04T04:04:41.468Z,100.00
2023-02-04T04:07:10.077Z,100.00
2023-02-04T04:09:40.264Z,100.00
2023-02-04T04:12:09.781Z,100.00
2023-02-04T04:14:41.197Z,100.00
2023-02-04T04:17:11.012Z,100.00
2023-02-04T04:19:40.170Z,100.00
2023-02-04T04:22:11.531Z,100.00
2023-02-04T04:24:40.586Z,100.00
2023-02-04T04:27:11.159Z,100.00
2023-02-04T04:29:41.233Z,100.00
2023-02-04T04:32:10.317Z,100.00
2023-02-04T04:34:39.265Z,100.00
2023-02-04T04:37:10.078Z,100.00
2023-02-04T04:39:40.814Z,100.00
2023-02-04T04:42:10.414Z,100.00
2023-02-04T04:44:41.575Z,100.00
2023-02-04T04:47:12.854Z,100.00
2023-02-04T04:49:45.416Z,100.00
2023-02-04T04:52:14.398Z,100.00
2023-02-04T04:54:46.469Z,100.00
2023-02-04T04:57:16.382Z,100.00
2023-02-04T04:59:46.047Z,100.00
2023-02-04T05:02:15.068Z,100.00
2023-02-04T05:04:44.520Z,100.00
2023-02-04T05:07:13.840Z,100.00
2023-02-04T05:09:44.591Z,100.00
2023-02-04T05:12:14.218Z,100.00
2023-02-04T05:14:42.980Z,100.00
2023-02-04T05:17:12.996Z,100.00
2023-02-04T05:19:41.929Z,100.00
2023-02-04T05:22:13.810Z,100.00
2023-02-04T05:24:44.844Z,100.00
2023-02-04T05:27:15.468Z,100.00
2023-02-04T05:29:46.067Z,100.00
2023-02-04T05:32:16.418Z,100.00
2023-02-04T05:34:45.116Z,100.00
2023-02-04T05:37:15.916Z,100.00
2023-02-04T05:39:45.906Z,100.00
2023-02-04T05:42:14.262Z,100.00
2023-02-04T05:44:47.402Z,100.00
2023-02-04T05:47:17.698Z,100.00
2023-02-04T05:49:47.764Z,100.00
2023-02-04T05:52:18.388Z,100.00
2023-02-04T05:54:47.467Z,100.00
2023-02-04T05:57:16.591Z,100.00
2023-02-04T05:59:47.546Z,100.00
2023-02-04T06:02:17.438Z,100.00
2023-02-04T06:04:46.676Z,100.00
2023-02-04T06:07:15.166Z,100.00
2023-02-04T06:09:45.734Z,100.00
2023-02-04T06:12:18.423Z,100.00
2023-02-04T06:14:46.939Z,100.00
2023-02-04T06:17:20.271Z,100.00
2023-02-04T06:19:50.513Z,100.00
2023-02-04T06:22:20.819Z,100.00
2023-02-04T06:24:49.801Z,100.00
2023-02-04T06:27:23.723Z,100.00
2023-02-04T06:29:53.856Z,100.00
2023-02-04T06:32:27.670Z,100.00
2023-02-04T06:34:57.415Z,100.00
2023-02-04T06:37:27.550Z,100.00
2023-02-04T06:39:58.192Z,100.00
2023-02-04T06:42:27.260Z,100.00
2023-02-04T06:45:00.088Z,100.00
2023-02-04T06:47:29.341Z,100.00
2023-02-04T06:49:59.804Z,100.00
2023-02-04T06:52:29.637Z,100.00
2023-02-04T06:54:58.988Z,100.00
2023-02-04T06:57:29.044Z,100.00
2023-02-04T06:59:57.735Z,100.00
2023-02-04T07:02:28.009Z,100.00
2023-02-04T07:04:58.488Z,100.00
2023-02-04T07:07:28.082Z,100.00
2023-02-04T07:09:57.383Z,100.00
2023-02-04T07:12:27.038Z,100.00
2023-02-04T07:14:58.772Z,100.00
2023-02-04T07:17:27.589Z,100.00
2023-02-04T07:19:58.442Z,100.00
2023-02-04T07:22:27.288Z,100.00
2023-02-04T07:24:56.464Z,100.00
2023-02-04T07:27:25.018Z,100.00
2023-02-04T07:29:55.460Z,100.00
2023-02-04T07:32:34.421Z,100.00
2023-02-04T07:35:04.729Z,100.00
2023-02-04T07:37:36.765Z,100.00
2023-02-04T07:40:08.330Z,100.00
2023-02-04T07:42:37.764Z,100.00
2023-02-04T07:45:10.859Z,100.00
2023-02-04T07:47:41.621Z,100.00
2023-02-04T07:50:13.503Z,100.00
2023-02-04T07:52:42.874Z,100.00
2023-02-04T07:55:14.339Z,100.00
2023-02-04T07:57:44.778Z,100.00
2023-02-04T08:00:16.803Z,100.00
2023-02-04T08:02:46.128Z,100.00
2023-02-04T08:05:17.040Z,100.00
2023-02-04T08:07:48.335Z,100.00
2023-02-04T08:10:17.498Z,100.00
2023-02-04T08:12:50.339Z,100.00
2023-02-04T08:15:20.560Z,100.00
2023-02-04T08:17:52.350Z,100.00
2023-02-04T08:20:20.906Z,100.00
2023-02-04T08:22:50.033Z,100.00
2023-02-04T08:25:19.340Z,100.00
2023-02-04T08:27:48.973Z,100.00
2023-02-04T08:30:19.413Z,100.00
2023-02-04T08:32:48.793Z,100.00
2023-02-04T08:35:17.969Z,100.00
2023-02-04T08:37:48.370Z,100.00
2023-02-04T08:40:19.617Z,100.00
2023-02-04T08:42:50.729Z,100.00
2023-02-04T08:45:19.621Z,100.00
2023-02-04T08:47:52.286Z,100.00
2023-02-04T08:50:22.340Z,100.00
2023-02-04T08:52:52.481Z,100.00
2023-02-04T08:55:22.910Z,100.00
2023-02-04T08:57:54.181Z,100.00
2023-02-04T09:00:23.344Z,100.00
2023-02-04T09:02:53.843Z,100.00
2023-02-04T09:05:23.560Z,100.00
2023-02-04T09:07:52.660Z,100.00
2023-02-04T09:10:21.904Z,93.34
2023-02-04T09:12:56.091Z,83.46
2023-02-04T09:15:26.429Z,76.60
2023-02-04T09:18:04.918Z,72.20
2023-02-04T09:20:37.401Z,68.73
2023-02-04T09:23:09.575Z,66.03
2023-02-04T09:25:40.257Z,64.87
2023-02-04T09:28:11.995Z,64.21
2023-02-04T09:30:40.802Z,63.33
2023-02-04T09:33:10.602Z,64.55
2023-02-04T09:35:39.853Z,65.97
2023-02-04T09:38:09.249Z,67.43
2023-02-04T09:40:41.763Z,67.96
2023-02-04T09:43:21.854Z,66.61
2023-02-04T09:45:52.108Z,66.53
2023-02-04T09:48:22.566Z,64.13
2023-02-04T09:50:52.272Z,62.50
2023-02-04T09:53:22.951Z,61.58
2023-02-04T09:55:52.646Z,59.02
2023-02-04T09:58:23.390Z,56.30
2023-02-04T10:01:16.930Z,55.37
2023-02-04T10:03:49.105Z,56.07
2023-02-04T10:06:20.644Z,56.51
2023-02-04T10:08:51.102Z,56.77
2023-02-04T10:11:21.626Z,58.00
2023-02-04T10:13:54.977Z,58.83
2023-02-04T10:16:34.442Z,59.36
2023-02-04T10:19:05.099Z,61.36
2023-02-04T10:21:37.524Z,61.43
2023-02-04T10:24:12.984Z,59.75
2023-02-04T10:26:41.892Z,57.63
2023-02-04T10:29:22.005Z,55.95
2023-02-04T10:31:52.699Z,55.46
2023-02-04T10:34:43.717Z,54.78
2023-02-04T10:37:20.600Z,52.83
2023-02-04T10:39:50.313Z,51.97
2023-02-04T10:42:31.992Z,51.11
2023-02-04T10:45:05.288Z,51.92
2023-02-04T10:47:36.551Z,52.06
2023-02-04T10:50:16.084Z,52.97
2023-02-04T10:52:47.774Z,52.00
2023-02-04T10:55:22.372Z,51.17
2023-02-04T10:57:53.149Z,51.00
2023-02-04T11:00:25.792Z,50.82
2023-02-04T11:02:58.935Z,50.94
2023-02-04T11:05:33.589Z,50.85
2023-02-04T11:08:03.362Z,50.59
2023-02-04T11:10:34.220Z,50.64
2023-02-04T11:13:06.017Z,50.62
2023-02-04T11:15:50.945Z,51.14
2023-02-04T11:18:20.578Z,52.10
2023-02-04T11:20:50.487Z,53.31
2023-02-04T11:23:33.201Z,54.17
2023-02-04T11:26:07.949Z,55.52
2023-02-04T11:28:50.946Z,57.79
2023-02-04T11:31:22.816Z,59.35
2023-02-04T11:34:04.114Z,61.02
2023-02-04T11:36:33.521Z,62.91
2023-02-04T11:39:09.007Z,64.41
2023-02-04T11:41:37.843Z,65.61
2023-02-04T11:44:08.642Z,66.73
2023-02-04T11:46:37.555Z,67.29
2023-02-04T11:49:15.942Z,67.18
2023-02-04T11:51:47.182Z,66.40
2023-02-04T11:54:19.881Z,66.50
2023-02-04T11:56:49.034Z,66.95
2023-02-04T11:59:21.543Z,67.61
2023-02-04T12:01:50.762Z,68.31
2023-02-04T12:04:25.614Z,68.92
2023-02-04T12:07:02.990Z,69.53
2023-02-04T12:09:34.257Z,70.32
2023-02-04T12:12:05.414Z,71.09
2023-02-04T12:14:38.210Z,71.91
2023-02-04T12:17:20.311Z,72.84
2023-02-04T12:19:50.698Z,72.99
2023-02-04T12:22:22.622Z,73.10
2023-02-04T12:24:53.859Z,73.93
2023-02-04T12:27:29.319Z,74.65
2023-02-04T12:29:59.013Z,75.50
2023-02-04T12:32:28.358Z,76.60
2023-02-04T12:35:06.610Z,77.39
2023-02-04T12:37:35.723Z,78.29
2023-02-04T12:40:12.332Z,79.61
2023-02-04T12:42:41.819Z,81.40
2023-02-04T12:45:14.082Z,82.67
2023-02-04T12:47:44.443Z,84.15
2023-02-04T12:50:23.986Z,85.23
2023-02-04T12:52:55.090Z,86.35
2023-02-04T12:55:28.205Z,87.05
2023-02-04T12:57:57.842Z,87.85
2023-02-04T13:00:28.066Z,88.69
2023-02-04T13:03:00.895Z,89.25
2023-02-04T13:05:31.229Z,89.49
2023-02-04T13:08:12.620Z,90.38
2023-02-04T13:10:41.255Z,91.14
2023-02-04T13:13:12.100Z,92.70
2023-02-04T13:15:43.613Z,93.72
2023-02-04T13:18:12.716Z,94.42
2023-02-04T13:20:44.555Z,94.83
2023-02-04T13:23:14.780Z,95.37
2023-02-04T13:25:45.610Z,96.32
2023-02-04T13:28:17.336Z,96.76
2023-02-04T13:30:46.675Z,97.87
2023-02-04T13:33:18.052Z,98.88
2023-02-04T13:35:50.006Z,100.00
2023-02-04T13:38:19.485Z,100.00
2023-02-04T13:40:49.901Z,100.00
2023-02-04T13:43:20.711Z,100.00
2023-02-04T13:45:50.944Z,100.00
2023-02-04T13:48:21.155Z,100.00
2023-02-04T13:50:54.038Z,100.00
2023-02-04T13:53:23.286Z,100.00
2023-02-04T13:55:54.952Z,100.00
2023-02-04T13:58:25.950Z,100.00
2023-02-04T14:00:57.702Z,100.00
2023-02-04T14:03:28.389Z,100.00
2023-02-04T14:05:56.752Z,100.00
2023-02-04T14:08:25.764Z,100.00
2023-02-04T14:10:55.016Z,100.00
2023-02-04T14:13:24.273Z,100.00
2023-02-04T14:15:55.537Z,100.00
2023-02-04T14:18:26.588Z,100.00
2023-02-04T14:20:56.271Z,100.00
2023-02-04T14:23:25.993Z,100.00
2023-02-04T14:25:56.378Z,100.00
2023-02-04T14:28:25.081Z,100.00
2023-02-04T14:31:02.898Z,100.00
2023-02-04T14:33:31.577Z,100.00
2023-02-04T14:36:03.915Z,100.00
2023-02-04T14:38:34.354Z,100.00
2023-02-04T14:41:04.462Z,100.00
2023-02-04T14:43:38.709Z,100.00
2023-02-04T14:46:08.359Z,100.00
2023-02-04T14:48:37.574Z,100.00
2023-02-04T14:51:06.910Z,100.00
2023-02-04T14:53:36.739Z,100.00
2023-02-04T14:56:06.160Z,100.00
2023-02-04T14:58:36.029Z,100.00
2023-02-04T15:01:06.492Z,100.00
2023-02-04T15:03:38.047Z,100.00
2023-02-04T15:06:07.991Z,100.00
2023-02-04T15:08:37.416Z,100.00
2023-02-04T15:11:12.323Z,100.00
2023-02-04T15:13:41.043Z,100.00
2023-02-04T15:16:15.922Z,100.00
2023-02-04T15:18:46.532Z,100.00
2023-02-04T15:21:22.798Z,100.00
2023-02-04T15:23:53.867Z,100.00
2023-02-04T15:26:26.253Z,100.00
2023-02-04T15:28:57.171Z,100.00
2023-02-04T15:31:27.844Z,100.00
2023-02-04T15:33:57.400Z,100.00
2023-02-04T15:36:26.286Z,100.00
2023-02-04T15:38:55.936Z,100.00
2023-02-04T15:41:27.376Z,100.00
2023-02-04T15:43:57.128Z,100.00
2023-02-04T15:46:26.203Z,100.00
2023-02-04T15:48:54.644Z,100.00
2023-02-04T15:51:24.681Z,100.00
2023-02-04T15:53:54.825Z,100.00
2023-02-04T15:56:24.642Z,100.00
2023-02-04T15:58:53.719Z,100.00
2023-02-04T16:01:24.183Z,100.00
2023-02-04T16:03:56.844Z,100.00
2023-02-04T16:06:26.139Z,100.00
2023-02-04T16:08:55.048Z,100.00
2023-02-04T16:11:25.696Z,100.00
2023-02-04T16:13:55.083Z,100.00
2023-02-04T16:16:25.610Z,100.00
2023-02-04T16:18:54.837Z,100.00
2023-02-04T16:21:31.087Z,100.00
2023-02-04T16:24:01.942Z,100.00
2023-02-04T16:26:32.684Z,100.00
2023-02-04T16:29:02.718Z,100.00
2023-02-04T16:31:33.943Z,100.00
2023-02-04T16:34:03.576Z,100.00
2023-02-04T16:36:35.041Z,100.00
2023-02-04T16:39:05.256Z,100.00
2023-02-04T16:41:36.634Z,100.00
2023-02-04T16:44:05.720Z,100.00
2023-02-04T16:46:36.487Z,100.00
2023-02-04T16:49:07.014Z,100.00
2023-02-04T16:51:36.104Z,100.00
2023-02-04T16:54:07.044Z,100.00
2023-02-04T16:56:39.643Z,100.00
2023-02-04T16:59:09.430Z,100.00
2023-02-04T17:01:42.104Z,100.00
2023-02-04T17:04:14.157Z,100.00
2023-02-04T17:06:46.073Z,100.00
2023-02-04T17:09:16.247Z,100.00
2023-02-04T17:11:45.753Z,100.00
2023-02-04T17:14:19.778Z,100.00
2023-02-04T17:16:52.258Z,100.00
2023-02-04T17:19:21.670Z,100.00
2023-02-04T17:21:51.024Z,100.00
2023-02-04T17:24:21.499Z,100.00
2023-02-04T17:26:51.832Z,100.00
2023-02-04T17:29:23.522Z,100.00
2023-02-04T17:31:53.523Z,100.00
2023-02-04T17:34:24.970Z,100.00
2023-02-04T17:36:54.977Z,100.00
2023-02-04T17:39:24.735Z,100.00
2023-02-04T17:41:53.547Z,100.00
2023-02-04T17:44:27.105Z,100.00
2023-02-04T17:46:59.551Z,100.00
2023-02-04T17:49:29.595Z,100.00
2023-02-04T17:52:01.098Z,100.00
2023-02-04T17:54:32.849Z,100.00
2023-02-04T17:57:18.430Z,100.00
2023-02-04T17:59:48.671Z,100.00
2023-02-04T18:02:29.857Z,100.00
2023-02-04T18:05:00.999Z,100.00
2023-02-04T18:07:32.756Z,100.00
2023-02-04T18:10:11.651Z,100.00
2023-02-04T18:12:40.308Z,100.00
2023-02-04T18:15:27.864Z,100.00
2023-02-04T18:18:18.899Z,100.00
2023-02-04T18:20:48.885Z,100.00
2023-02-04T18:23:19.494Z,100.00
2023-02-04T18:25:49.108Z,100.00
2023-02-04T18:28:23.357Z,100.00
2023-02-04T18:30:54.969Z,100.00
2023-02-04T18:33:27.005Z,100.00
2023-02-04T18:36:00.571Z,100.00
2023-02-04T18:38:35.189Z,100.00
2023-02-04T18:41:23.885Z,100.00
2023-02-04T18:44:02.661Z,100.00
2023-02-04T18:46:34.101Z,100.00
2023-02-04T18:49:09.320Z,100.00
2023-02-04T18:51:41.444Z,100.00
2023-02-04T18:54:42.378Z,100.00
2023-02-04T18:57:16.040Z,100.00
2023-02-04T18:59:46.592Z,100.00
2023-02-04T19:02:24.245Z,100.00
2023-02-04T19:05:11.304Z,100.00
2023-02-04T19:07:43.429Z,100.00
2023-02-04T19:10:28.169Z,100.00
2023-02-04T19:13:33.419Z,100.00
2023-02-04T19:16:25.132Z,100.00
2023-02-04T19:18:56.739Z,100.00
2023-02-04T19:21:31.263Z,100.00
2023-02-04T19:24:09.606Z,100.00
2023-02-04T19:26:41.219Z,100.00
2023-02-04T19:29:30.981Z,100.00
2023-02-04T19:32:07.121Z,100.00
2023-02-04T19:34:38.659Z,100.00
2023-02-04T19:37:49.427Z,100.00
2023-02-04T19:40:22.681Z,100.00
2023-02-04T19:42:54.268Z,100.00
2023-02-04T19:45:27.304Z,100.00
2023-02-04T19:47:56.670Z,100.00
2023-02-04T19:50:29.541Z,100.00
2023-02-04T19:53:02.301Z,100.00
2023-02-04T19:55:42.165Z,100.00
2023-02-04T19:58:24.348Z,100.00
2023-02-04T20:01:00.213Z,100.00
2023-02-04T20:03:42.992Z,100.00
2023-02-04T20:06:30.089Z,100.00
2023-02-04T20:09:25.472Z,100.00
2023-02-04T20:12:08.529Z,100.00
2023-02-04T20:14:47.237Z,100.00
2023-02-04T20:17:19.594Z,100.00
2023-02-04T20:19:49.558Z,100.00
2023-02-04T20:22:24.472Z,100.00
2023-02-04T20:25:00.196Z,100.00
2023-02-04T20:27:40.479Z,100.00
2023-02-04T20:30:11.935Z,100.00
2023-02-04T20:32:42.669Z,100.00
2023-02-04T20:35:15.640Z,100.00
2023-02-04T20:37:50.115Z,100.00
2023-02-04T20:40:29.295Z,100.00
2023-02-04T20:43:04.948Z,100.00
2023-02-04T20:45:38.846Z,100.00
2023-02-04T20:48:28.349Z,100.00
2023-02-04T20:50:59.293Z,100.00
2023-02-04T20:53:36.432Z,100.00
2023-02-04T20:56:34.017Z,100.00
2023-02-04T20:59:18.699Z,100.00
2023-02-04T21:01:51.254Z,100.00
2023-02-04T21:04:30.492Z,100.00
2023-02-04T21:07:03.395Z,100.00
2023-02-04T21:09:38.242Z,100.00
2023-02-04T21:12:09.126Z,100.00
2023-02-04T21:14:38.276Z,100.00
2023-02-04T21:17:08.580Z,100.00
2023-02-04T21:19:38.912Z,100.00
2023-02-04T21:22:10.505Z,100.00
2023-02-04T21:24:40.354Z,100.00
2023-02-04T21:27:09.703Z,100.00
2023-02-04T21:29:42.481Z,100.00
2023-02-04T21:32:13.813Z,100.00
2023-02-04T21:34:43.375Z,100.00
2023-02-04T21:37:13.622Z,100.00
2023-02-04T21:39:43.894Z,100.00
2023-02-04T21:42:14.422Z,100.00
2023-02-04T21:44:43.925Z,100.00
2023-02-04T21:47:14.456Z,100.00
2023-02-04T21:49:44.795Z,100.00
2023-02-04T21:52:15.365Z,100.00
2023-02-04T21:54:45.288Z,100.00
2023-02-04T21:57:16.881Z,100.00
2023-02-04T21:59:48.433Z,100.00
2023-02-04T22:02:18.309Z,100.00
2023-02-04T22:04:49.551Z,100.00
2023-02-04T22:07:20.521Z,100.00
2023-02-04T22:09:50.400Z,100.00
2023-02-04T22:12:19.766Z,100.00
2023-02-04T22:14:50.567Z,100.00
2023-02-04T22:17:21.281Z,100.00
2023-02-04T22:19:51.114Z,100.00
2023-02-04T22:22:20.532Z,100.00
2023-02-04T22:24:50.126Z,100.00
2023-02-04T22:27:20.548Z,100.00
2023-02-04T22:29:50.028Z,100.00
2023-02-04T22:32:19.995Z,100.00
2023-02-04T22:34:51.228Z,100.00
2023-02-04T22:37:21.968Z,100.00
2023-02-04T22:39:52.210Z,100.00
2023-02-04T22:42:22.207Z,100.00
2023-02-04T22:44:51.704Z,100.00
2023-02-04T22:47:21.272Z,100.00
2023-02-04T22:49:52.350Z,100.00
2023-02-04T22:52:26.064Z,100.00
2023-02-04T22:54:55.097Z,100.00
2023-02-04T22:57:26.084Z,100.00
2023-02-04T22:59:56.772Z,100.00
2023-02-04T23:02:26.756Z,100.00
2023-02-04T23:04:56.047Z,100.00
2023-02-04T23:07:27.130Z,100.00
2023-02-04T23:09:56.806Z,100.00
2023-02-04T23:12:28.131Z,100.00
2023-02-04T23:14:56.802Z,100.00
2023-02-04T23:17:25.755Z,100.00
2023-02-04T23:19:58.438Z,100.00
2023-02-04T23:22:27.983Z,100.00
2023-02-04T23:25:00.138Z,100.00
2023-02-04T23:27:31.038Z,100.00
2023-02-04T23:30:00.261Z,100.00
2023-02-04T23:32:32.253Z,100.00
2023-02-04T23:35:02.774Z,100.00
2023-02-04T23:37:33.505Z,100.00
2023-02-04T23:40:03.838Z,100.00
2023-02-04T23:42:34.391Z,100.00
2023-02-04T23:45:03.319Z,100.00
2023-02-04T23:47:34.409Z,100.00
2023-02-04T23:50:04.523Z,100.00
2023-02-04T23:52:33.104Z,100.00
2023-02-04T23:55:02.236Z,100.00
2023-02-04T23:57:31.391Z,100.00
